aviador You're here:

KLRY Decoded Metar

in
Report Time2018-07-18 23:35:00
UTC Time2018-07-18 23:45:24
Flight Rules vfr VFR
Wind100° at 07 kt
W.Decomp.*RWY 17: 2.4 kt HW 6.6 kt LCW
W.Rank100° ranks 18
Current wind is above 100° avg. (5.5)
Visibility9999 m
Phenomena:N/A
Clouds:Scattered 031 Hf
Expected CloudBase > 3,200 ft AGL from Temp-Dew spread
CeilingNone
Temp30°C
Dew Point22°C (62% RH)
Heat Index33.2°C
QNH1014 hPa
Raw Report
KLRY 182335Z AUTO 10007KT 10SM SCT031 30/22 A2994 RMK AO2=

Extra information for KLRY:More info

Social comments